Time;durP1;ratioP1;P1;durP2;ratioP2;P2;SDS_P1;SDS_P2;PMS_P1;PMS_P2;Temp;Humidity;BMP_temperature;BMP_pressure;BME280_temperature;BME280_humidity;BME280_pressure;Samples;Min_cycle;Max_cycle;Signal;HPM_P1;HPM_P2
2024/02/06 00:01:10;;;;;;;8.83;5.50;;;9.80;99.90;;;;;;5074654;28;20536;-54
2024/02/06 00:03:37;;;;;;;6.67;4.80;;;9.80;99.90;;;;;;5076223;28;20437;-55
2024/02/06 00:06:03;;;;;;;16.50;6.10;;;9.80;99.90;;;;;;5075976;28;20456;-55
2024/02/06 00:08:31;;;;;;;12.03;5.90;;;9.80;99.90;;;;;;5076059;28;20441;-54
2024/02/06 00:10:58;;;;;;;8.63;4.80;;;9.90;99.90;;;;;;5076854;28;20498;-55
2024/02/06 00:13:25;;;;;;;7.33;5.10;;;9.90;99.90;;;;;;5077544;28;20485;-55
2024/02/06 00:15:52;;;;;;;7.23;4.67;;;9.90;99.90;;;;;;5076506;28;20472;-55
2024/02/06 00:18:18;;;;;;;8.00;4.80;;;9.90;99.90;;;;;;5076601;28;20444;-54
2024/02/06 00:20:45;;;;;;;9.93;5.03;;;9.90;99.90;;;;;;5077195;28;20942;-56
2024/02/06 00:23:12;;;;;;;10.97;4.93;;;9.90;99.90;;;;;;5078222;28;20453;-55
2024/02/06 00:25:40;;;;;;;7.20;4.77;;;9.90;99.90;;;;;;5077973;28;20464;-54
2024/02/06 00:28:07;;;;;;;13.03;6.67;;;9.90;99.90;;;;;;5076691;28;20444;-54
2024/02/06 00:30:33;;;;;;;8.93;5.33;;;9.90;99.90;;;;;;5073791;28;20488;-55
2024/02/06 00:33:00;;;;;;;9.73;4.60;;;10.00;99.90;;;;;;5074123;28;20437;-55
2024/02/06 00:35:29;;;;;;;12.63;5.33;;;10.00;99.90;;;;;;5073681;28;20473;-55
2024/02/06 00:37:57;;;;;;;8.30;4.90;;;10.00;99.90;;;;;;5073478;28;20441;-54
2024/02/06 00:40:24;;;;;;;13.83;4.40;;;10.00;99.90;;;;;;5073218;28;20485;-54
2024/02/06 00:42:53;;;;;;;14.70;5.67;;;10.00;99.90;;;;;;5073659;28;20452;-54
2024/02/06 00:45:19;;;;;;;12.83;4.43;;;10.00;99.90;;;;;;5073270;28;20906;-54
2024/02/06 00:47:49;;;;;;;9.43;4.23;;;10.10;99.90;;;;;;5073650;28;20468;-54
2024/02/06 00:50:16;;;;;;;9.63;4.43;;;10.20;99.90;;;;;;5073422;28;20502;-54
2024/02/06 00:52:43;;;;;;;7.80;4.70;;;10.20;99.90;;;;;;5073314;28;20460;-54
2024/02/06 00:55:10;;;;;;;5.13;4.27;;;10.20;99.90;;;;;;5073145;28;20444;-54
2024/02/06 00:57:37;;;;;;;9.47;4.40;;;10.20;99.90;;;;;;5072803;28;20445;-54
2024/02/06 01:00:07;;;;;;;9.73;4.57;;;10.20;99.90;;;;;;5073204;28;20437;-54
2024/02/06 01:02:34;;;;;;;12.07;4.90;;;10.20;99.90;;;;;;5072990;28;21002;-54
2024/02/06 01:05:01;;;;;;;8.73;4.73;;;10.20;99.90;;;;;;5073248;28;20444;-54
2024/02/06 01:07:28;;;;;;;13.30;4.90;;;10.20;99.90;;;;;;5072872;28;20437;-54
2024/02/06 01:09:55;;;;;;;9.40;4.43;;;10.20;99.90;;;;;;5073195;28;20539;-54
2024/02/06 01:12:22;;;;;;;7.07;3.70;;;10.30;99.90;;;;;;5076419;28;20478;-54
2024/02/06 01:14:49;;;;;;;11.13;4.90;;;10.30;99.90;;;;;;5077352;28;20818;-54
2024/02/06 01:17:18;;;;;;;12.10;4.00;;;10.30;99.90;;;;;;5077037;28;20989;-55
2024/02/06 01:19:44;;;;;;;7.40;4.63;;;10.20;99.90;;;;;;5077153;28;20440;-54
2024/02/06 01:22:11;;;;;;;7.30;3.73;;;10.20;99.90;;;;;;5077432;28;20437;-54
2024/02/06 01:24:38;;;;;;;15.90;5.10;;;10.20;99.90;;;;;;5077049;28;20447;-54
2024/02/06 01:27:05;;;;;;;10.03;4.70;;;10.20;99.90;;;;;;5077094;28;20467;-54
2024/02/06 01:29:31;;;;;;;9.60;4.97;;;10.20;99.90;;;;;;5077375;28;20452;-54
2024/02/06 01:31:58;;;;;;;10.53;5.40;;;10.20;99.90;;;;;;5076996;28;20487;-54
2024/02/06 01:34:26;;;;;;;16.87;4.23;;;10.20;99.90;;;;;;5077003;28;20448;-54
2024/02/06 01:36:53;;;;;;;9.20;4.77;;;10.20;99.90;;;;;;5076465;28;20460;-54
2024/02/06 01:39:20;;;;;;;13.57;4.73;;;10.20;99.90;;;;;;5076882;28;20455;-54
2024/02/06 01:41:46;;;;;;;8.77;4.77;;;10.20;99.90;;;;;;5077719;28;20440;-55
2024/02/06 01:44:13;;;;;;;7.80;3.90;;;10.20;99.90;;;;;;5077326;28;20480;-54
2024/02/06 01:46:40;;;;;;;9.73;4.60;;;10.20;99.90;;;;;;5076725;28;20838;-54
2024/02/06 01:49:09;;;;;;;12.47;4.90;;;10.20;99.90;;;;;;5076472;28;20942;-54
2024/02/06 01:51:40;;;;;;;10.27;5.43;;;10.20;99.90;;;;;;5076717;28;20476;-54
2024/02/06 01:54:07;;;;;;;10.10;6.83;;;10.20;99.90;;;;;;5076456;28;20448;-55
2024/02/06 01:56:35;;;;;;;7.20;4.77;;;10.20;99.90;;;;;;5076468;28;20487;-54
2024/02/06 01:59:02;;;;;;;12.83;5.00;;;10.20;99.90;;;;;;5076540;28;20445;-55
2024/02/06 02:01:29;;;;;;;13.57;5.33;;;10.20;99.90;;;;;;5076440;28;20823;-54
2024/02/06 02:03:55;;;;;;;12.80;6.70;;;10.20;99.90;;;;;;5076323;28;20444;-54
2024/02/06 02:06:24;;;;;;;9.37;3.97;;;10.20;99.90;;;;;;5076177;28;20464;-54
2024/02/06 02:08:52;;;;;;;8.13;4.20;;;10.20;99.90;;;;;;5076304;28;20432;-54
2024/02/06 02:11:19;;;;;;;8.43;4.20;;;10.20;99.90;;;;;;5076159;28;20476;-54
2024/02/06 02:13:46;;;;;;;10.97;5.00;;;10.20;99.90;;;;;;5076007;28;20447;-55
2024/02/06 02:16:15;;;;;;;5.80;4.40;;;10.20;99.90;;;;;;5075800;28;20471;-55
2024/02/06 02:18:42;;;;;;;12.23;4.30;;;10.20;99.90;;;;;;5076412;28;20890;-54
2024/02/06 02:21:10;;;;;;;10.03;4.37;;;10.20;99.90;;;;;;5076276;28;20441;-55
2024/02/06 02:23:38;;;;;;;8.07;4.10;;;10.30;99.90;;;;;;5075344;28;20819;-55
2024/02/06 02:26:06;;;;;;;10.57;4.63;;;10.20;99.90;;;;;;5076592;28;20458;-55
2024/02/06 02:28:33;;;;;;;12.40;3.77;;;10.30;99.90;;;;;;5076167;28;20468;-55
2024/02/06 02:31:00;;;;;;;10.33;4.10;;;10.30;99.90;;;;;;5076198;28;20473;-54
2024/02/06 02:33:27;;;;;;;8.00;3.90;;;10.30;99.90;;;;;;5075833;28;20444;-54
2024/02/06 02:35:54;;;;;;;8.80;4.73;;;10.30;99.90;;;;;;5076133;28;20460;-54
2024/02/06 02:38:24;;;;;;;7.57;3.40;;;10.30;99.90;;;;;;5076480;28;20789;-54
2024/02/06 02:40:51;;;;;;;12.70;4.40;;;10.30;99.90;;;;;;5076423;28;20824;-54
2024/02/06 02:43:18;;;;;;;7.90;3.47;;;10.40;99.90;;;;;;5076559;28;20456;-55
2024/02/06 02:45:45;;;;;;;5.97;4.27;;;10.40;99.90;;;;;;5076108;28;20479;-54
2024/02/06 02:48:12;;;;;;;6.23;4.03;;;10.40;99.90;;;;;;5075953;28;20449;-55
2024/02/06 02:50:39;;;;;;;9.57;4.20;;;10.40;99.90;;;;;;5075940;28;20467;-54
2024/02/06 02:53:05;;;;;;;8.13;3.87;;;10.40;99.90;;;;;;5075470;28;20456;-54
2024/02/06 02:55:34;;;;;;;12.77;4.33;;;10.40;99.90;;;;;;5075444;28;20460;-55
2024/02/06 02:58:00;;;;;;;11.80;4.10;;;10.40;99.90;;;;;;5075646;28;20523;-56
2024/02/06 03:00:27;;;;;;;9.83;3.80;;;10.50;99.90;;;;;;5075406;28;20444;-55
2024/02/06 03:02:54;;;;;;;12.20;3.73;;;10.50;99.90;;;;;;5075491;28;20437;-55
2024/02/06 03:05:21;;;;;;;6.40;3.43;;;10.50;99.90;;;;;;5075405;28;20464;-55
2024/02/06 03:07:47;;;;;;;7.63;3.23;;;10.50;99.90;;;;;;5075387;28;20498;-55
2024/02/06 03:10:14;;;;;;;10.40;4.57;;;10.50;99.90;;;;;;5075310;28;20447;-55
2024/02/06 03:12:42;;;;;;;9.23;3.17;;;10.50;99.90;;;;;;5075125;28;20476;-55
2024/02/06 03:15:10;;;;;;;6.27;3.33;;;10.60;99.90;;;;;;5075014;28;20506;-55
2024/02/06 03:17:37;;;;;;;12.03;3.97;;;10.60;99.90;;;;;;5074774;28;20954;-55
2024/02/06 03:20:04;;;;;;;7.40;3.00;;;10.60;99.90;;;;;;5075230;28;20468;-55
2024/02/06 03:22:32;;;;;;;8.17;3.63;;;10.60;99.90;;;;;;5075222;28;20437;-55
2024/02/06 03:24:59;;;;;;;9.00;5.67;;;10.60;99.90;;;;;;5074621;28;21004;-55
2024/02/06 03:27:25;;;;;;;7.17;3.90;;;10.60;99.90;;;;;;5075043;28;20456;-55
2024/02/06 03:29:53;;;;;;;9.53;3.97;;;10.60;99.90;;;;;;5074893;28;20782;-55
2024/02/06 03:32:20;;;;;;;6.40;3.20;;;10.60;99.90;;;;;;5074343;28;21024;-55
2024/02/06 03:34:47;;;;;;;9.47;3.93;;;10.60;99.90;;;;;;5074342;28;20953;-55
2024/02/06 03:37:14;;;;;;;6.07;3.23;;;10.60;99.90;;;;;;5074613;28;20465;-55
2024/02/06 03:39:40;;;;;;;9.73;3.80;;;10.70;99.90;;;;;;5075005;28;20449;-55
2024/02/06 03:42:08;;;;;;;11.93;3.63;;;10.70;99.90;;;;;;5074842;28;20437;-55
2024/02/06 03:44:35;;;;;;;12.37;3.90;;;10.60;99.90;;;;;;5074668;28;20449;-55
2024/02/06 03:47:03;;;;;;;9.97;3.57;;;10.60;99.90;;;;;;5074490;28;20456;-55
2024/02/06 03:49:30;;;;;;;9.50;3.10;;;10.60;99.90;;;;;;5074114;28;20444;-55
2024/02/06 03:51:56;;;;;;;10.53;3.87;;;10.60;99.90;;;;;;5074115;28;20476;-55
2024/02/06 03:54:23;;;;;;;10.70;3.60;;;10.60;99.90;;;;;;5074395;28;20425;-55
2024/02/06 03:56:50;;;;;;;9.30;4.00;;;10.60;99.90;;;;;;5074205;28;20468;-55
2024/02/06 03:59:16;;;;;;;9.83;4.47;;;10.60;99.90;;;;;;5074340;28;20449;-55
2024/02/06 04:01:44;;;;;;;11.37;4.00;;;10.60;99.90;;;;;;5074201;28;20440;-55
2024/02/06 04:04:12;;;;;;;10.20;3.17;;;10.60;99.90;;;;;;5074125;28;20503;-55
2024/02/06 04:06:39;;;;;;;13.43;4.07;;;10.50;99.90;;;;;;5073838;28;20872;-55
2024/02/06 04:09:06;;;;;;;15.77;4.60;;;10.50;99.90;;;;;;5074083;28;20943;-55
2024/02/06 04:11:33;;;;;;;8.07;3.77;;;10.60;99.90;;;;;;5073889;28;20484;-55
2024/02/06 04:14:00;;;;;;;9.23;3.70;;;10.50;99.90;;;;;;5074605;28;20444;-55
2024/02/06 04:16:27;;;;;;;8.50;4.13;;;10.60;99.90;;;;;;5073647;28;20469;-55
2024/02/06 04:18:53;;;;;;;6.47;3.40;;;10.60;99.90;;;;;;5074084;28;20456;-55
2024/02/06 04:21:21;;;;;;;10.43;4.10;;;10.60;99.90;;;;;;5074377;28;20449;-55
2024/02/06 04:23:48;;;;;;;8.70;4.07;;;10.60;99.90;;;;;;5073925;28;20448;-55
2024/02/06 04:26:15;;;;;;;10.47;4.00;;;10.70;99.90;;;;;;5073537;28;20997;-55
2024/02/06 04:28:41;;;;;;;6.83;4.33;;;10.60;99.90;;;;;;5073823;28;20440;-55
2024/02/06 04:31:08;;;;;;;9.57;4.10;;;10.60;99.90;;;;;;5073649;28;20444;-55
2024/02/06 04:33:35;;;;;;;6.43;4.47;;;10.60;99.90;;;;;;5073938;28;20444;-55
2024/02/06 04:36:02;;;;;;;13.30;4.23;;;10.60;99.90;;;;;;5074030;28;20510;-55
2024/02/06 04:38:31;;;;;;;8.37;4.10;;;10.60;99.90;;;;;;5073813;28;20445;-55
2024/02/06 04:40:58;;;;;;;16.17;3.87;;;10.60;99.90;;;;;;5073407;28;20448;-55
2024/02/06 04:43:25;;;;;;;11.00;4.13;;;10.60;99.90;;;;;;5073646;28;20440;-55
2024/02/06 04:45:51;;;;;;;14.13;4.43;;;10.60;99.90;;;;;;5073126;28;20463;-55
2024/02/06 04:48:18;;;;;;;8.83;3.83;;;10.60;99.90;;;;;;5073456;28;20943;-55
2024/02/06 04:50:45;;;;;;;17.80;4.00;;;10.60;99.90;;;;;;5073411;28;20451;-55
2024/02/06 04:53:11;;;;;;;8.43;3.87;;;10.70;99.90;;;;;;5073479;28;20480;-55
2024/02/06 04:55:40;;;;;;;17.37;4.40;;;10.60;99.90;;;;;;5073435;28;20469;-55
2024/02/06 04:58:06;;;;;;;12.23;3.60;;;10.60;99.90;;;;;;5074086;28;20451;-55
2024/02/06 05:00:33;;;;;;;9.60;4.57;;;10.60;99.90;;;;;;5073621;28;20445;-55
2024/02/06 05:03:00;;;;;;;16.13;4.27;;;10.60;99.90;;;;;;5073214;28;20981;-55
2024/02/06 05:05:26;;;;;;;9.87;5.77;;;10.60;99.90;;;;;;5073501;28;20461;-55
2024/02/06 05:07:53;;;;;;;9.30;4.90;;;10.60;99.90;;;;;;5073470;28;20441;-55
2024/02/06 05:10:20;;;;;;;12.40;4.23;;;10.60;99.90;;;;;;5072975;28;20452;-55
2024/02/06 05:12:48;;;;;;;11.00;4.40;;;10.60;99.90;;;;;;5073324;28;20484;-55
2024/02/06 05:15:15;;;;;;;9.40;4.17;;;10.60;99.90;;;;;;5073666;28;20436;-55
2024/02/06 05:17:42;;;;;;;6.53;4.37;;;10.60;99.90;;;;;;5073038;28;20480;-55
2024/02/06 05:20:10;;;;;;;8.80;4.30;;;10.60;99.90;;;;;;5073495;28;20484;-55
2024/02/06 05:22:37;;;;;;;8.20;4.70;;;10.60;99.90;;;;;;5073528;28;20444;-55
2024/02/06 05:25:05;;;;;;;10.33;5.20;;;10.60;99.90;;;;;;5073522;28;20448;-55
2024/02/06 05:27:31;;;;;;;9.13;4.50;;;10.60;99.90;;;;;;5073245;28;20444;-55
2024/02/06 05:30:04;;;;;;;9.90;4.13;;;10.60;99.90;;;;;;5073293;28;20445;-55
2024/02/06 05:32:31;;;;;;;10.50;5.30;;;10.50;99.90;;;;;;5073213;28;20511;-55
2024/02/06 05:34:59;;;;;;;9.17;4.80;;;10.50;99.90;;;;;;5073222;28;20435;-55
2024/02/06 05:37:26;;;;;;;8.37;4.17;;;10.50;99.90;;;;;;5073265;28;20448;-55
2024/02/06 05:39:53;;;;;;;9.27;4.60;;;10.50;99.90;;;;;;5073106;28;20448;-55
2024/02/06 05:42:20;;;;;;;6.80;4.77;;;10.50;99.90;;;;;;5072785;28;20988;-55
2024/02/06 05:44:47;;;;;;;11.20;6.23;;;10.40;99.90;;;;;;5073422;28;20452;-55
2024/02/06 05:47:16;;;;;;;8.10;4.63;;;10.50;99.90;;;;;;5073038;28;20469;-55
2024/02/06 05:49:43;;;;;;;14.33;4.43;;;10.50;99.90;;;;;;5073049;28;20444;-55
2024/02/06 05:52:11;;;;;;;9.00;4.50;;;10.50;99.90;;;;;;5072905;28;20580;-55
2024/02/06 05:54:38;;;;;;;8.03;5.60;;;10.50;99.90;;;;;;5074560;28;20842;-55
2024/02/06 05:57:05;;;;;;;10.97;4.73;;;10.60;99.90;;;;;;5075951;28;20471;-55
2024/02/06 05:59:32;;;;;;;12.27;4.03;;;10.60;99.90;;;;;;5077126;28;20441;-55
2024/02/06 06:01:59;;;;;;;10.30;6.07;;;10.60;99.90;;;;;;5077021;28;20441;-54
2024/02/06 06:04:27;;;;;;;9.97;4.60;;;10.60;99.90;;;;;;5077079;28;20448;-55
2024/02/06 06:06:54;;;;;;;16.20;4.60;;;10.60;99.90;;;;;;5076722;28;20456;-54
2024/02/06 06:09:20;;;;;;;10.17;4.77;;;10.60;99.90;;;;;;5076489;28;20444;-54
2024/02/06 06:11:47;;;;;;;9.00;4.20;;;10.60;99.90;;;;;;5076411;28;20539;-54
2024/02/06 06:14:14;;;;;;;9.77;4.83;;;10.60;99.90;;;;;;5076474;28;20460;-54
2024/02/06 06:16:41;;;;;;;8.43;5.17;;;10.60;99.90;;;;;;5076151;28;21001;-54
2024/02/06 06:19:08;;;;;;;11.20;5.53;;;10.60;99.90;;;;;;5076876;28;20491;-54
2024/02/06 06:21:36;;;;;;;7.87;4.50;;;10.60;99.90;;;;;;5076498;28;20436;-55
2024/02/06 06:24:03;;;;;;;11.03;4.83;;;10.70;99.90;;;;;;5076391;28;20436;-54
2024/02/06 06:26:29;;;;;;;9.47;5.60;;;10.70;99.90;;;;;;5076182;28;20494;-55
2024/02/06 06:28:56;;;;;;;7.43;4.77;;;10.70;99.90;;;;;;5076291;28;20467;-54
2024/02/06 06:31:23;;;;;;;8.10;4.53;;;10.70;99.90;;;;;;5075946;28;20448;-54
2024/02/06 06:33:50;;;;;;;6.40;4.30;;;10.70;99.90;;;;;;5075930;28;20484;-54
2024/02/06 06:36:16;;;;;;;15.17;4.87;;;10.70;99.90;;;;;;5076009;28;20826;-54
2024/02/06 06:38:44;;;;;;;10.63;4.80;;;10.70;99.90;;;;;;5075704;28;20812;-54
2024/02/06 06:41:11;;;;;;;10.73;4.90;;;10.70;99.90;;;;;;5075836;28;20437;-54
2024/02/06 06:43:38;;;;;;;8.13;5.03;;;10.70;99.90;;;;;;5075908;28;20459;-54
2024/02/06 06:46:05;;;;;;;12.53;5.90;;;10.70;99.90;;;;;;5076121;28;20464;-54
2024/02/06 06:48:33;;;;;;;11.70;5.00;;;10.70;99.90;;;;;;5075647;28;20946;-54
2024/02/06 06:50:59;;;;;;;6.63;4.47;;;10.70;99.90;;;;;;5076014;28;20453;-54
2024/02/06 06:53:26;;;;;;;12.60;4.60;;;10.70;99.90;;;;;;5075304;28;20496;-54
2024/02/06 06:55:54;;;;;;;11.77;5.70;;;10.70;99.90;;;;;;5075323;28;20468;-54
2024/02/06 06:58:21;;;;;;;16.40;5.50;;;10.70;99.90;;;;;;5075767;28;20448;-54
2024/02/06 07:00:49;;;;;;;14.43;4.80;;;10.70;99.90;;;;;;5075659;28;20812;-54
2024/02/06 07:03:15;;;;;;;13.63;5.90;;;10.70;99.90;;;;;;5075722;28;20855;-54
2024/02/06 07:05:42;;;;;;;15.87;5.80;;;10.70;99.90;;;;;;5075795;28;20469;-54
2024/02/06 07:08:09;;;;;;;8.20;5.10;;;10.80;99.90;;;;;;5075644;28;20794;-54
2024/02/06 07:10:35;;;;;;;17.30;5.50;;;10.80;99.90;;;;;;5075060;28;20444;-54
2024/02/06 07:13:04;;;;;;;16.37;4.60;;;10.80;99.90;;;;;;5075397;28;20476;-54
2024/02/06 07:15:30;;;;;;;11.93;5.87;;;10.80;99.90;;;;;;5075319;28;20464;-54
2024/02/06 07:17:57;;;;;;;13.83;4.87;;;10.90;99.90;;;;;;5075525;28;20448;-54
2024/02/06 07:20:24;;;;;;;8.33;5.17;;;10.90;99.90;;;;;;5075733;28;20445;-54
2024/02/06 07:22:52;;;;;;;11.33;5.67;;;10.90;99.90;;;;;;5075172;28;20440;-54
2024/02/06 07:25:19;;;;;;;10.60;5.20;;;10.90;99.90;;;;;;5074959;28;20946;-54
2024/02/06 07:27:45;;;;;;;8.97;4.43;;;10.90;99.90;;;;;;5075297;28;20448;-54
2024/02/06 07:30:15;;;;;;;11.97;5.20;;;10.80;99.90;;;;;;5075311;28;20453;-54
2024/02/06 07:32:41;;;;;;;11.03;5.70;;;10.90;99.90;;;;;;5075002;28;20476;-54
2024/02/06 07:35:09;;;;;;;11.97;4.90;;;10.90;99.90;;;;;;5075603;28;20448;-54
2024/02/06 07:37:37;;;;;;;12.23;5.90;;;10.90;99.90;;;;;;5075160;28;20954;-54
2024/02/06 07:40:05;;;;;;;15.27;6.47;;;10.90;99.90;;;;;;5075475;28;20445;-54
2024/02/06 07:42:32;;;;;;;18.03;6.10;;;11.00;99.90;;;;;;5075213;28;20443;-55
2024/02/06 07:44:59;;;;;;;19.93;5.27;;;10.90;99.90;;;;;;5075397;28;20444;-56
2024/02/06 07:47:27;;;;;;;13.83;5.37;;;11.00;99.90;;;;;;5075984;28;20444;-54
2024/02/06 07:49:54;;;;;;;9.93;4.27;;;11.00;99.90;;;;;;5075143;28;20445;-55
2024/02/06 07:52:20;;;;;;;16.67;5.47;;;11.00;99.90;;;;;;5075381;28;20460;-54
2024/02/06 07:54:47;;;;;;;12.23;4.87;;;11.00;99.90;;;;;;5076052;28;20429;-54
2024/02/06 07:57:14;;;;;;;12.70;6.13;;;11.10;99.90;;;;;;5075655;28;20472;-55
2024/02/06 07:59:41;;;;;;;16.97;7.37;;;11.10;99.90;;;;;;5076861;28;20447;-55
2024/02/06 08:02:07;;;;;;;7.03;4.93;;;11.10;99.90;;;;;;5077997;28;20948;-55
2024/02/06 08:04:35;;;;;;;10.50;4.97;;;11.10;99.90;;;;;;5077791;28;20444;-54
2024/02/06 08:07:02;;;;;;;21.30;5.40;;;11.20;99.90;;;;;;5076782;28;20460;-54
2024/02/06 08:09:29;;;;;;;13.67;4.67;;;11.20;99.90;;;;;;5074141;28;20441;-55
2024/02/06 08:11:56;;;;;;;13.20;4.80;;;11.20;99.90;;;;;;5074254;28;20452;-55
2024/02/06 08:14:22;;;;;;;14.00;5.50;;;11.20;99.90;;;;;;5073922;28;20513;-54
2024/02/06 08:16:50;;;;;;;8.27;4.37;;;11.20;99.90;;;;;;5074032;28;20460;-54
2024/02/06 08:19:16;;;;;;;11.30;4.47;;;11.20;99.90;;;;;;5073652;28;20942;-54
2024/02/06 08:21:44;;;;;;;11.37;4.93;;;11.30;99.90;;;;;;5073110;28;20453;-54
2024/02/06 08:24:11;;;;;;;14.30;4.43;;;11.30;99.90;;;;;;5073861;28;20443;-55
2024/02/06 08:26:38;;;;;;;9.00;5.07;;;11.30;99.90;;;;;;5073794;28;20457;-54
2024/02/06 08:29:05;;;;;;;14.13;5.00;;;11.30;99.90;;;;;;5073771;28;20451;-54
2024/02/06 08:31:32;;;;;;;10.97;4.53;;;11.30;99.90;;;;;;5073636;28;20515;-54
2024/02/06 08:33:59;;;;;;;18.40;5.30;;;11.30;99.90;;;;;;5073613;28;20476;-54
2024/02/06 08:36:26;;;;;;;13.60;4.80;;;11.40;99.90;;;;;;5073491;28;20449;-55
2024/02/06 08:38:54;;;;;;;14.30;5.00;;;11.40;99.90;;;;;;5073625;28;20452;-54
2024/02/06 08:41:22;;;;;;;10.17;6.07;;;11.30;99.90;;;;;;5073572;28;20852;-54
2024/02/06 08:43:49;;;;;;;15.10;5.50;;;11.30;99.90;;;;;;5073571;28;20441;-54
2024/02/06 08:46:16;;;;;;;12.40;4.70;;;11.40;99.90;;;;;;5073480;28;20838;-54
2024/02/06 08:48:42;;;;;;;11.63;4.60;;;11.30;99.90;;;;;;5073684;28;20789;-54
2024/02/06 08:51:10;;;;;;;9.80;4.90;;;11.40;99.90;;;;;;5073619;28;20447;-54
2024/02/06 08:53:37;;;;;;;14.27;4.83;;;11.30;99.90;;;;;;5073094;28;20480;-54
2024/02/06 08:56:07;;;;;;;9.60;5.17;;;11.30;99.90;;;;;;5073330;28;20461;-54
2024/02/06 08:58:34;;;;;;;12.70;5.40;;;11.40;99.90;;;;;;5073467;28;20451;-54
2024/02/06 09:01:01;;;;;;;11.60;5.00;;;11.40;99.90;;;;;;5073391;28;20448;-54
2024/02/06 09:03:28;;;;;;;8.23;4.20;;;11.40;99.90;;;;;;5073522;28;20441;-55
2024/02/06 09:05:54;;;;;;;9.67;4.90;;;11.30;99.90;;;;;;5073452;28;20464;-54
2024/02/06 09:08:21;;;;;;;11.47;5.63;;;11.30;99.90;;;;;;5073378;28;20448;-55
2024/02/06 09:10:48;;;;;;;12.80;4.90;;;11.30;99.90;;;;;;5074389;28;20449;-55
2024/02/06 09:13:16;;;;;;;8.80;5.10;;;11.30;99.90;;;;;;5073290;28;20856;-55
2024/02/06 09:15:42;;;;;;;9.13;4.47;;;11.30;99.90;;;;;;5073376;28;21009;-54
2024/02/06 09:18:09;;;;;;;15.07;4.73;;;11.30;99.90;;;;;;5073711;28;20452;-55
2024/02/06 09:20:37;;;;;;;8.10;4.83;;;11.20;99.90;;;;;;5073344;28;20437;-54
2024/02/06 09:23:04;;;;;;;15.23;4.70;;;11.30;99.90;;;;;;5073042;28;20441;-55
2024/02/06 09:25:31;;;;;;;8.80;4.40;;;11.30;99.90;;;;;;5072898;28;20491;-55
2024/02/06 09:27:57;;;;;;;14.30;4.93;;;11.30;99.90;;;;;;5072887;28;20448;-55
2024/02/06 09:30:25;;;;;;;10.30;5.37;;;11.40;99.90;;;;;;5073258;28;20455;-55
2024/02/06 09:32:52;;;;;;;8.50;5.50;;;11.30;99.90;;;;;;5075449;28;20448;-55
2024/02/06 09:35:19;;;;;;;11.20;5.10;;;11.40;99.90;;;;;;5077044;28;20440;-55
2024/02/06 09:37:46;;;;;;;9.73;4.60;;;11.40;99.90;;;;;;5077063;28;20447;-55
2024/02/06 09:40:13;;;;;;;12.07;5.13;;;11.30;99.90;;;;;;5076679;28;20887;-55
2024/02/06 09:42:41;;;;;;;8.70;4.60;;;11.40;99.90;;;;;;5076925;28;20448;-55
2024/02/06 09:45:09;;;;;;;10.13;5.00;;;11.30;99.90;;;;;;5076834;28;20825;-55
2024/02/06 09:47:37;;;;;;;7.83;4.47;;;11.30;99.90;;;;;;5077042;28;20498;-55
2024/02/06 09:50:04;;;;;;;10.37;5.67;;;11.40;99.90;;;;;;5076855;28;20459;-54
2024/02/06 09:52:32;;;;;;;20.17;5.53;;;11.40;99.90;;;;;;5076314;28;20811;-56
2024/02/06 09:55:02;;;;;;;14.30;5.20;;;11.40;99.90;;;;;;5076670;28;20488;-55
2024/02/06 09:57:30;;;;;;;12.73;5.33;;;11.40;99.90;;;;;;5076523;28;20925;-55
2024/02/06 09:59:58;;;;;;;16.43;5.10;;;11.40;99.90;;;;;;5076276;28;20934;-55
2024/02/06 10:02:26;;;;;;;11.03;5.07;;;11.40;99.90;;;;;;5076749;28;20437;-55
2024/02/06 10:04:56;;;;;;;14.37;5.40;;;11.40;99.90;;;;;;5076525;28;20432;-55
2024/02/06 10:07:24;;;;;;;9.33;5.00;;;11.40;99.90;;;;;;5076065;28;20993;-55
2024/02/06 10:09:53;;;;;;;10.33;4.90;;;11.40;99.90;;;;;;5076493;28;20436;-55
2024/02/06 10:12:20;;;;;;;11.40;5.07;;;11.30;99.90;;;;;;5076353;28;20440;-55
2024/02/06 10:14:47;;;;;;;21.33;5.73;;;11.40;99.90;;;;;;5076024;28;20473;-55
2024/02/06 10:17:14;;;;;;;16.13;5.10;;;11.40;99.90;;;;;;5076197;28;20823;-55
2024/02/06 10:19:41;;;;;;;8.03;4.77;;;11.50;99.90;;;;;;5076565;28;20440;-55
2024/02/06 10:22:12;;;;;;;10.90;5.60;;;11.50;99.90;;;;;;5075923;28;20950;-55
2024/02/06 10:24:39;;;;;;;16.77;5.80;;;11.50;99.90;;;;;;5076179;28;20453;-56
2024/02/06 10:27:06;;;;;;;13.93;6.93;;;11.50;99.90;;;;;;5075831;28;20975;-55
2024/02/06 10:29:34;;;;;;;14.70;5.80;;;11.50;99.90;;;;;;5075854;28;20444;-55
2024/02/06 10:32:01;;;;;;;11.37;5.40;;;11.50;99.90;;;;;;5075863;28;20444;-55
2024/02/06 10:34:28;;;;;;;13.93;5.60;;;11.50;99.90;;;;;;5075952;28;20488;-55
2024/02/06 10:36:59;;;;;;;11.20;5.00;;;11.60;99.90;;;;;;5075916;28;20828;-55
2024/02/06 10:39:29;;;;;;;7.77;4.73;;;11.50;99.90;;;;;;5075916;28;20467;-55
2024/02/06 10:42:00;;;;;;;17.00;6.37;;;11.50;99.90;;;;;;5075858;28;20437;-55
2024/02/06 10:44:28;;;;;;;13.43;5.60;;;11.50;99.90;;;;;;5074999;28;20514;-55
2024/02/06 10:46:59;;;;;;;13.33;5.57;;;11.60;99.90;;;;;;5075686;28;20514;-55
2024/02/06 10:49:26;;;;;;;19.40;5.97;;;11.60;99.90;;;;;;5075678;28;20437;-55
2024/02/06 10:52:02;;;;;;;14.90;5.80;;;11.60;99.90;;;;;;5075098;28;20917;-55
2024/02/06 10:54:30;;;;;;;16.47;6.13;;;11.60;99.90;;;;;;5075530;28;20556;-55
2024/02/06 10:57:05;;;;;;;10.23;4.87;;;11.70;99.90;;;;;;5075690;28;20468;-55
2024/02/06 10:59:35;;;;;;;12.80;5.33;;;11.70;99.90;;;;;;5076352;28;20444;-55
2024/02/06 11:02:13;;;;;;;16.60;5.70;;;11.70;99.90;;;;;;5075477;28;20437;-55
2024/02/06 11:04:41;;;;;;;13.37;4.87;;;11.80;99.90;;;;;;5075444;28;20432;-55
2024/02/06 11:07:10;;;;;;;11.47;5.03;;;11.90;99.90;;;;;;5075454;28;20875;-55
2024/02/06 11:09:40;;;;;;;14.07;5.47;;;11.90;99.90;;;;;;5075441;28;20540;-55
2024/02/06 11:12:10;;;;;;;11.80;5.47;;;11.90;99.90;;;;;;5075423;28;20425;-55
2024/02/06 11:14:40;;;;;;;10.17;5.30;;;12.00;99.90;;;;;;5075172;28;20567;-55
2024/02/06 11:17:10;;;;;;;14.90;6.47;;;11.90;99.90;;;;;;5075404;28;20477;-55
2024/02/06 11:19:46;;;;;;;15.60;6.40;;;11.90;99.90;;;;;;5076118;28;20528;-55
2024/02/06 11:22:19;;;;;;;15.40;6.37;;;11.90;99.90;;;;;;5075265;28;20445;-55
2024/02/06 11:24:48;;;;;;;17.00;6.90;;;11.80;99.90;;;;;;5075212;28;20433;-55
2024/02/06 11:27:16;;;;;;;15.20;6.00;;;11.80;99.90;;;;;;5075097;28;20465;-55
2024/02/06 11:29:43;;;;;;;17.43;6.97;;;11.70;99.90;;;;;;5075385;28;20455;-55
2024/02/06 11:32:11;;;;;;;11.30;5.83;;;11.70;99.90;;;;;;5075235;28;20818;-55
2024/02/06 11:34:47;;;;;;;21.83;7.10;;;11.80;99.90;;;;;;5074691;28;20487;-55
2024/02/06 11:37:23;;;;;;;11.83;5.27;;;11.90;99.90;;;;;;5074763;28;20492;-55
2024/02/06 11:39:52;;;;;;;16.17;6.30;;;11.90;99.90;;;;;;5075047;28;20444;-55
2024/02/06 11:42:23;;;;;;;15.43;5.77;;;11.90;99.90;;;;;;5074595;28;20517;-55
2024/02/06 11:44:49;;;;;;;23.93;6.90;;;11.90;99.90;;;;;;5074592;28;20436;-55
2024/02/06 11:47:21;;;;;;;20.20;5.90;;;11.90;99.90;;;;;;5074531;28;20461;-55
2024/02/06 11:49:49;;;;;;;16.40;6.10;;;11.90;99.90;;;;;;5074623;28;20421;-55
2024/02/06 11:52:21;;;;;;;16.67;7.43;;;11.80;99.90;;;;;;5074219;28;20861;-55
2024/02/06 11:54:49;;;;;;;15.53;5.20;;;11.90;99.90;;;;;;5074168;28;20496;-55
2024/02/06 11:57:17;;;;;;;17.77;5.60;;;11.80;99.90;;;;;;5074034;28;20846;-55
2024/02/06 11:59:44;;;;;;;18.20;6.20;;;11.90;99.90;;;;;;5074342;28;20444;-55
2024/02/06 12:02:12;;;;;;;24.27;6.70;;;11.90;99.90;;;;;;5074281;28;20436;-55
2024/02/06 12:04:39;;;;;;;18.17;6.33;;;11.90;99.90;;;;;;5074262;28;20436;-55
2024/02/06 12:07:06;;;;;;;23.33;5.80;;;11.90;99.90;;;;;;5074131;28;20461;-55
2024/02/06 12:09:38;;;;;;;13.53;6.93;;;11.90;99.90;;;;;;5073851;28;20861;-55
2024/02/06 12:12:06;;;;;;;15.50;5.93;;;12.00;99.90;;;;;;5074135;28;20425;-55
2024/02/06 12:14:34;;;;;;;21.57;6.27;;;12.00;99.90;;;;;;5074486;28;20568;-55
2024/02/06 12:17:01;;;;;;;11.53;5.57;;;12.00;99.90;;;;;;5073703;28;20997;-55
2024/02/06 12:19:28;;;;;;;11.30;5.53;;;11.90;99.90;;;;;;5073675;28;20966;-55
2024/02/06 12:21:59;;;;;;;20.37;6.57;;;12.00;99.90;;;;;;5073935;28;20452;-55
2024/02/06 12:24:26;;;;;;;22.23;6.17;;;12.00;99.90;;;;;;5073907;28;20425;-55
2024/02/06 12:27:04;;;;;;;15.77;6.10;;;12.00;99.90;;;;;;5073882;28;20522;-55
2024/02/06 12:29:38;;;;;;;16.53;5.37;;;12.10;99.90;;;;;;5073891;28;20429;-55
2024/02/06 12:32:05;;;;;;;19.63;6.10;;;12.10;99.90;;;;;;5073430;28;20915;-55
2024/02/06 12:34:32;;;;;;;10.73;5.33;;;12.20;99.90;;;;;;5073750;28;20475;-56
2024/02/06 12:36:59;;;;;;;13.80;6.30;;;12.30;99.90;;;;;;5074350;28;20460;-55
2024/02/06 12:39:26;;;;;;;17.83;6.10;;;12.50;99.90;;;;;;5074308;28;20448;-54
2024/02/06 12:41:59;;;;;;;22.53;7.80;;;12.60;99.90;;;;;;5074072;28;20807;-55